sensor_id;sensor_type;location;lat;lon;timestamp;temperature;humidity
43227;DHT22;28839;52.404;9.808;2023-07-20T00:01:11;16.20;99.90
43227;DHT22;28839;52.404;9.808;2023-07-20T00:08:05;16.10;99.90
43227;DHT22;28839;52.404;9.808;2023-07-20T00:15:01;16.00;99.90
43227;DHT22;28839;52.404;9.808;2023-07-20T00:21:55;16.00;99.90
43227;DHT22;28839;52.404;9.808;2023-07-20T00:28:50;15.90;99.90
43227;DHT22;28839;52.404;9.808;2023-07-20T00:35:45;15.80;99.90
43227;DHT22;28839;52.404;9.808;2023-07-20T00:42:39;15.80;99.90
43227;DHT22;28839;52.404;9.808;2023-07-20T00:49:33;15.80;99.90
43227;DHT22;28839;52.404;9.808;2023-07-20T00:56:28;15.70;99.90
43227;DHT22;28839;52.404;9.808;2023-07-20T01:03:22;15.60;99.90
43227;DHT22;28839;52.404;9.808;2023-07-20T01:10:22;15.50;99.90
43227;DHT22;28839;52.404;9.808;2023-07-20T01:17:20;15.40;99.90
43227;DHT22;28839;52.404;9.808;2023-07-20T01:24:39;15.20;99.90
43227;DHT22;28839;52.404;9.808;2023-07-20T01:31:38;15.10;99.90
43227;DHT22;28839;52.404;9.808;2023-07-20T01:38:33;15.10;99.90
43227;DHT22;28839;52.404;9.808;2023-07-20T01:45:27;15.10;99.90
43227;DHT22;28839;52.404;9.808;2023-07-20T01:52:23;15.10;99.90
43227;DHT22;28839;52.404;9.808;2023-07-20T01:59:16;15.10;99.90
43227;DHT22;28839;52.404;9.808;2023-07-20T02:06:10;15.10;99.90
43227;DHT22;28839;52.404;9.808;2023-07-20T02:13:05;15.20;99.90
43227;DHT22;28839;52.404;9.808;2023-07-20T02:19:59;15.30;99.90
43227;DHT22;28839;52.404;9.808;2023-07-20T02:26:53;15.20;99.90
43227;DHT22;28839;52.404;9.808;2023-07-20T02:33:48;15.00;99.90
43227;DHT22;28839;52.404;9.808;2023-07-20T02:40:42;14.90;99.90
43227;DHT22;28839;52.404;9.808;2023-07-20T02:47:36;14.90;99.90
43227;DHT22;28839;52.404;9.808;2023-07-20T02:54:31;15.00;99.90
43227;DHT22;28839;52.404;9.808;2023-07-20T03:01:25;15.00;99.90
43227;DHT22;28839;52.404;9.808;2023-07-20T03:08:21;15.00;99.90
43227;DHT22;28839;52.404;9.808;2023-07-20T03:15:16;15.10;99.90
43227;DHT22;28839;52.404;9.808;2023-07-20T03:22:10;15.20;99.90
43227;DHT22;28839;52.404;9.808;2023-07-20T03:29:04;15.10;99.90
43227;DHT22;28839;52.404;9.808;2023-07-20T03:36:00;15.30;99.90
43227;DHT22;28839;52.404;9.808;2023-07-20T03:42:54;15.30;99.90
43227;DHT22;28839;52.404;9.808;2023-07-20T03:49:48;15.40;99.90
43227;DHT22;28839;52.404;9.808;2023-07-20T03:56:43;15.50;99.90
43227;DHT22;28839;52.404;9.808;2023-07-20T04:03:37;15.50;99.90
43227;DHT22;28839;52.404;9.808;2023-07-20T04:10:31;15.50;99.90
43227;DHT22;28839;52.404;9.808;2023-07-20T04:17:26;15.60;99.90
43227;DHT22;28839;52.404;9.808;2023-07-20T04:24:20;15.50;99.90
43227;DHT22;28839;52.404;9.808;2023-07-20T04:31:15;15.60;99.90
43227;DHT22;28839;52.404;9.808;2023-07-20T04:38:10;15.60;99.90
43227;DHT22;28839;52.404;9.808;2023-07-20T04:45:05;15.60;99.90
43227;DHT22;28839;52.404;9.808;2023-07-20T04:51:59;15.30;99.90
43227;DHT22;28839;52.404;9.808;2023-07-20T04:58:54;15.20;99.90
43227;DHT22;28839;52.404;9.808;2023-07-20T05:05:48;15.00;99.90
43227;DHT22;28839;52.404;9.808;2023-07-20T05:12:42;15.00;99.90
43227;DHT22;28839;52.404;9.808;2023-07-20T05:19:37;15.00;99.90
43227;DHT22;28839;52.404;9.808;2023-07-20T05:26:30;15.10;99.90
43227;DHT22;28839;52.404;9.808;2023-07-20T05:33:25;14.90;99.90
43227;DHT22;28839;52.404;9.808;2023-07-20T05:40:20;15.00;99.90
43227;DHT22;28839;52.404;9.808;2023-07-20T05:47:14;15.00;99.90
43227;DHT22;28839;52.404;9.808;2023-07-20T05:54:08;15.00;99.90
43227;DHT22;28839;52.404;9.808;2023-07-20T06:01:03;14.90;99.90
43227;DHT22;28839;52.404;9.808;2023-07-20T06:07:58;15.00;99.90
43227;DHT22;28839;52.404;9.808;2023-07-20T06:14:53;15.10;99.90
43227;DHT22;28839;52.404;9.808;2023-07-20T06:21:49;15.10;99.90
43227;DHT22;28839;52.404;9.808;2023-07-20T06:28:43;15.40;99.90
43227;DHT22;28839;52.404;9.808;2023-07-20T06:35:36;15.60;99.90
43227;DHT22;28839;52.404;9.808;2023-07-20T06:42:32;15.80;99.90
43227;DHT22;28839;52.404;9.808;2023-07-20T06:49:26;15.90;99.90
43227;DHT22;28839;52.404;9.808;2023-07-20T06:56:20;15.70;99.90
43227;DHT22;28839;52.404;9.808;2023-07-20T07:03:16;15.80;99.90
43227;DHT22;28839;52.404;9.808;2023-07-20T07:10:10;16.40;99.90
43227;DHT22;28839;52.404;9.808;2023-07-20T07:17:04;16.60;99.90
43227;DHT22;28839;52.404;9.808;2023-07-20T07:23:59;17.30;99.90
43227;DHT22;28839;52.404;9.808;2023-07-20T07:30:55;17.70;99.90
43227;DHT22;28839;52.404;9.808;2023-07-20T07:37:49;19.30;99.90
43227;DHT22;28839;52.404;9.808;2023-07-20T07:44:44;17.80;99.90
43227;DHT22;28839;52.404;9.808;2023-07-20T07:51:38;17.20;99.90
43227;DHT22;28839;52.404;9.808;2023-07-20T07:58:32;19.60;99.90
43227;DHT22;28839;52.404;9.808;2023-07-20T08:05:27;20.40;99.90
43227;DHT22;28839;52.404;9.808;2023-07-20T08:12:23;20.60;99.90
43227;DHT22;28839;52.404;9.808;2023-07-20T08:19:17;22.50;99.90
43227;DHT22;28839;52.404;9.808;2023-07-20T08:26:12;20.10;99.90
43227;DHT22;28839;52.404;9.808;2023-07-20T08:33:06;21.00;99.90
43227;DHT22;28839;52.404;9.808;2023-07-20T08:40:00;21.20;99.90
43227;DHT22;28839;52.404;9.808;2023-07-20T08:46:56;20.60;99.90
43227;DHT22;28839;52.404;9.808;2023-07-20T08:53:51;20.90;99.90
43227;DHT22;28839;52.404;9.808;2023-07-20T09:00:45;22.10;99.90
43227;DHT22;28839;52.404;9.808;2023-07-20T09:07:46;19.90;99.90
43227;DHT22;28839;52.404;9.808;2023-07-20T09:14:42;22.00;99.90
43227;DHT22;28839;52.404;9.808;2023-07-20T09:21:36;22.50;99.90
43227;DHT22;28839;52.404;9.808;2023-07-20T09:28:41;22.80;99.90
43227;DHT22;28839;52.404;9.808;2023-07-20T09:35:36;23.30;99.90
43227;DHT22;28839;52.404;9.808;2023-07-20T09:42:30;24.00;99.90
43227;DHT22;28839;52.404;9.808;2023-07-20T09:49:25;23.80;99.90
43227;DHT22;28839;52.404;9.808;2023-07-20T09:56:21;23.50;99.80
43227;DHT22;28839;52.404;9.808;2023-07-20T10:03:18;22.30;99.90
43227;DHT22;28839;52.404;9.808;2023-07-20T10:10:15;21.50;99.90
43227;DHT22;28839;52.404;9.808;2023-07-20T10:17:12;21.20;99.90
43227;DHT22;28839;52.404;9.808;2023-07-20T10:24:07;21.20;99.90
43227;DHT22;28839;52.404;9.808;2023-07-20T10:31:03;20.90;99.90
43227;DHT22;28839;52.404;9.808;2023-07-20T10:38:05;21.50;99.90
43227;DHT22;28839;52.404;9.808;2023-07-20T10:45:01;21.00;99.90
43227;DHT22;28839;52.404;9.808;2023-07-20T10:52:00;21.50;99.90
43227;DHT22;28839;52.404;9.808;2023-07-20T10:58:58;21.70;99.90
43227;DHT22;28839;52.404;9.808;2023-07-20T11:05:52;22.00;99.90
43227;DHT22;28839;52.404;9.808;2023-07-20T11:13:18;22.30;99.90
43227;DHT22;28839;52.404;9.808;2023-07-20T11:20:13;22.50;99.90
43227;DHT22;28839;52.404;9.808;2023-07-20T11:27:08;22.60;99.90
43227;DHT22;28839;52.404;9.808;2023-07-20T11:34:03;22.00;99.90
43227;DHT22;28839;52.404;9.808;2023-07-20T11:40:57;22.20;99.90
43227;DHT22;28839;52.404;9.808;2023-07-20T11:47:51;21.70;99.90
43227;DHT22;28839;52.404;9.808;2023-07-20T11:54:46;22.50;99.90
43227;DHT22;28839;52.404;9.808;2023-07-20T12:01:40;21.70;99.90
43227;DHT22;28839;52.404;9.808;2023-07-20T12:08:34;21.70;99.90
43227;DHT22;28839;52.404;9.808;2023-07-20T12:15:33;21.90;99.90
43227;DHT22;28839;52.404;9.808;2023-07-20T12:22:26;21.70;99.90
43227;DHT22;28839;52.404;9.808;2023-07-20T12:29:20;21.40;99.90
43227;DHT22;28839;52.404;9.808;2023-07-20T12:36:15;21.30;99.90
43227;DHT22;28839;52.404;9.808;2023-07-20T12:43:09;21.60;99.90
43227;DHT22;28839;52.404;9.808;2023-07-20T12:50:04;22.00;99.90
43227;DHT22;28839;52.404;9.808;2023-07-20T12:57:00;22.30;99.40
43227;DHT22;28839;52.404;9.808;2023-07-20T13:03:55;22.10;99.90
43227;DHT22;28839;52.404;9.808;2023-07-20T13:10:49;22.20;99.90
43227;DHT22;28839;52.404;9.808;2023-07-20T13:17:45;21.90;99.90
43227;DHT22;28839;52.404;9.808;2023-07-20T13:24:39;21.80;99.90
43227;DHT22;28839;52.404;9.808;2023-07-20T13:31:33;22.40;99.90
43227;DHT22;28839;52.404;9.808;2023-07-20T13:38:28;22.40;98.70
43227;DHT22;28839;52.404;9.808;2023-07-20T13:45:22;21.60;99.90
43227;DHT22;28839;52.404;9.808;2023-07-20T13:52:16;21.30;99.90
43227;DHT22;28839;52.404;9.808;2023-07-20T13:59:11;21.10;99.90
43227;DHT22;28839;52.404;9.808;2023-07-20T14:06:05;21.40;99.90
43227;DHT22;28839;52.404;9.808;2023-07-20T14:12:59;22.10;99.90
43227;DHT22;28839;52.404;9.808;2023-07-20T14:19:54;22.10;99.90
43227;DHT22;28839;52.404;9.808;2023-07-20T14:26:48;21.70;99.90
43227;DHT22;28839;52.404;9.808;2023-07-20T14:33:42;21.50;99.90
43227;DHT22;28839;52.404;9.808;2023-07-20T14:40:37;21.50;99.90
43227;DHT22;28839;52.404;9.808;2023-07-20T14:47:31;21.80;99.90
43227;DHT22;28839;52.404;9.808;2023-07-20T14:54:27;21.60;99.90
43227;DHT22;28839;52.404;9.808;2023-07-20T15:01:22;22.10;99.60
43227;DHT22;28839;52.404;9.808;2023-07-20T15:08:16;22.40;99.70
43227;DHT22;28839;52.404;9.808;2023-07-20T15:15:12;22.70;98.30
43227;DHT22;28839;52.404;9.808;2023-07-20T15:22:07;22.40;97.80
43227;DHT22;28839;52.404;9.808;2023-07-20T15:29:01;22.00;99.00
43227;DHT22;28839;52.404;9.808;2023-07-20T15:35:55;21.80;97.70
43227;DHT22;28839;52.404;9.808;2023-07-20T15:42:50;21.80;97.40
43227;DHT22;28839;52.404;9.808;2023-07-20T15:49:44;21.70;98.40
43227;DHT22;28839;52.404;9.808;2023-07-20T15:56:39;21.50;98.90
43227;DHT22;28839;52.404;9.808;2023-07-20T16:03:35;21.20;99.50
43227;DHT22;28839;52.404;9.808;2023-07-20T16:10:28;20.80;99.90
43227;DHT22;28839;52.404;9.808;2023-07-20T16:17:22;20.50;99.90
43227;DHT22;28839;52.404;9.808;2023-07-20T16:24:17;20.20;99.90
43227;DHT22;28839;52.404;9.808;2023-07-20T16:31:12;20.10;99.90
43227;DHT22;28839;52.404;9.808;2023-07-20T16:38:06;19.90;99.90
43227;DHT22;28839;52.404;9.808;2023-07-20T16:45:01;20.00;99.90
43227;DHT22;28839;52.404;9.808;2023-07-20T16:51:55;20.00;99.90
43227;DHT22;28839;52.404;9.808;2023-07-20T16:58:49;20.00;99.90
43227;DHT22;28839;52.404;9.808;2023-07-20T17:05:44;19.90;99.90
43227;DHT22;28839;52.404;9.808;2023-07-20T17:12:39;20.10;99.90
43227;DHT22;28839;52.404;9.808;2023-07-20T17:19:33;20.10;99.90
43227;DHT22;28839;52.404;9.808;2023-07-20T17:26:28;20.00;99.90
43227;DHT22;28839;52.404;9.808;2023-07-20T17:33:22;19.90;99.90
43227;DHT22;28839;52.404;9.808;2023-07-20T17:40:17;19.80;99.90
43227;DHT22;28839;52.404;9.808;2023-07-20T17:47:13;19.60;99.90
43227;DHT22;28839;52.404;9.808;2023-07-20T17:54:07;19.50;99.90
43227;DHT22;28839;52.404;9.808;2023-07-20T18:01:02;19.40;99.90
43227;DHT22;28839;52.404;9.808;2023-07-20T18:07:57;19.20;99.90
43227;DHT22;28839;52.404;9.808;2023-07-20T18:14:51;19.30;99.90
43227;DHT22;28839;52.404;9.808;2023-07-20T18:21:45;19.10;99.90
43227;DHT22;28839;52.404;9.808;2023-07-20T18:28:40;19.00;99.90
43227;DHT22;28839;52.404;9.808;2023-07-20T18:35:34;18.80;99.90
43227;DHT22;28839;52.404;9.808;2023-07-20T18:42:28;18.70;99.90
43227;DHT22;28839;52.404;9.808;2023-07-20T18:49:23;18.60;99.90
43227;DHT22;28839;52.404;9.808;2023-07-20T18:56:18;18.40;99.90
43227;DHT22;28839;52.404;9.808;2023-07-20T19:03:12;18.30;99.90
43227;DHT22;28839;52.404;9.808;2023-07-20T19:10:08;18.20;99.90
43227;DHT22;28839;52.404;9.808;2023-07-20T19:17:03;18.10;99.90
43227;DHT22;28839;52.404;9.808;2023-07-20T19:23:57;17.80;99.90
43227;DHT22;28839;52.404;9.808;2023-07-20T19:30:53;17.80;99.90
43227;DHT22;28839;52.404;9.808;2023-07-20T19:37:47;17.50;99.90
43227;DHT22;28839;52.404;9.808;2023-07-20T19:44:41;17.30;99.90
43227;DHT22;28839;52.404;9.808;2023-07-20T19:51:36;17.10;99.90
43227;DHT22;28839;52.404;9.808;2023-07-20T19:58:30;16.80;99.90
43227;DHT22;28839;52.404;9.808;2023-07-20T20:05:24;16.70;99.90
43227;DHT22;28839;52.404;9.808;2023-07-20T20:12:20;16.60;99.90
43227;DHT22;28839;52.404;9.808;2023-07-20T20:19:16;16.40;99.90
43227;DHT22;28839;52.404;9.808;2023-07-20T20:26:10;16.10;99.90
43227;DHT22;28839;52.404;9.808;2023-07-20T20:33:06;15.90;99.90
43227;DHT22;28839;52.404;9.808;2023-07-20T20:40:00;15.80;99.90
43227;DHT22;28839;52.404;9.808;2023-07-20T20:46:54;15.70;99.90
43227;DHT22;28839;52.404;9.808;2023-07-20T20:53:54;15.60;99.90
43227;DHT22;28839;52.404;9.808;2023-07-20T21:00:47;15.60;99.90
43227;DHT22;28839;52.404;9.808;2023-07-20T21:07:41;15.40;99.90
43227;DHT22;28839;52.404;9.808;2023-07-20T21:14:36;15.30;99.90
43227;DHT22;28839;52.404;9.808;2023-07-20T21:21:30;14.90;99.90
43227;DHT22;28839;52.404;9.808;2023-07-20T21:28:24;14.90;99.90
43227;DHT22;28839;52.404;9.808;2023-07-20T21:35:19;14.70;99.90
43227;DHT22;28839;52.404;9.808;2023-07-20T21:42:13;14.60;99.90
43227;DHT22;28839;52.404;9.808;2023-07-20T21:49:07;14.50;99.90
43227;DHT22;28839;52.404;9.808;2023-07-20T21:56:02;14.50;99.90
43227;DHT22;28839;52.404;9.808;2023-07-20T22:02:56;14.30;99.90
43227;DHT22;28839;52.404;9.808;2023-07-20T22:09:50;14.40;99.90
43227;DHT22;28839;52.404;9.808;2023-07-20T22:16:45;14.50;99.90
43227;DHT22;28839;52.404;9.808;2023-07-20T22:23:39;14.40;99.90
43227;DHT22;28839;52.404;9.808;2023-07-20T22:30:33;14.40;99.90
43227;DHT22;28839;52.404;9.808;2023-07-20T22:37:28;14.50;99.90
43227;DHT22;28839;52.404;9.808;2023-07-20T22:44:22;14.60;99.90
43227;DHT22;28839;52.404;9.808;2023-07-20T22:51:16;14.70;99.90
43227;DHT22;28839;52.404;9.808;2023-07-20T22:58:11;14.70;99.90
43227;DHT22;28839;52.404;9.808;2023-07-20T23:05:05;14.80;99.90
43227;DHT22;28839;52.404;9.808;2023-07-20T23:11:59;14.80;99.90
43227;DHT22;28839;52.404;9.808;2023-07-20T23:18:56;14.90;99.90
43227;DHT22;28839;52.404;9.808;2023-07-20T23:25:53;14.90;99.90
43227;DHT22;28839;52.404;9.808;2023-07-20T23:32:48;15.00;99.90
43227;DHT22;28839;52.404;9.808;2023-07-20T23:39:44;15.00;99.90
43227;DHT22;28839;52.404;9.808;2023-07-20T23:46:39;15.00;99.90
43227;DHT22;28839;52.404;9.808;2023-07-20T23:53:33;15.10;99.90
